createdAt,value
2023-01-11T00:02:14.592Z,97951.91
2023-01-11T00:04:42.055Z,97947.66
2023-01-11T00:07:09.636Z,97942.66
2023-01-11T00:09:37.089Z,97938.06
2023-01-11T00:12:04.730Z,97932.28
2023-01-11T00:14:32.200Z,97925.75
2023-01-11T00:17:00.252Z,97925.28
2023-01-11T00:19:27.655Z,97914.09
2023-01-11T00:21:55.227Z,97905.84
2023-01-11T00:24:22.690Z,97902.69
2023-01-11T00:26:50.185Z,97902.47
2023-01-11T00:29:17.647Z,97896.75
2023-01-11T00:31:45.248Z,97887.44
2023-01-11T00:34:12.703Z,97886.81
2023-01-11T00:36:40.252Z,97886.34
2023-01-11T00:39:07.669Z,97880.59
2023-01-11T00:41:53.981Z,97875.94
2023-01-11T00:44:40.148Z,97871.47
2023-01-11T00:47:33.100Z,97867.38
2023-01-11T00:50:01.077Z,97863.91
2023-01-11T00:52:29.119Z,97854.38
2023-01-11T00:54:56.604Z,97850.22
2023-01-11T00:57:24.026Z,97839.03
2023-01-11T00:59:51.657Z,97837.72
2023-01-11T01:02:19.165Z,97837.50
2023-01-11T01:04:46.723Z,97844.25
2023-01-11T01:07:14.242Z,97843.25
2023-01-11T01:09:41.735Z,97840.00
2023-01-11T01:12:09.498Z,97830.91
2023-01-11T01:14:37.235Z,97820.38
2023-01-11T01:17:08.678Z,97817.13
2023-01-11T01:19:38.342Z,97814.31
2023-01-11T01:22:05.926Z,97816.78
2023-01-11T01:24:34.075Z,97817.03
2023-01-11T01:27:01.587Z,97805.16
2023-01-11T01:29:29.147Z,97805.97
2023-01-11T01:31:56.620Z,97803.53
2023-01-11T01:34:24.230Z,97803.34
2023-01-11T01:36:51.697Z,97797.91
2023-01-11T01:39:19.320Z,97798.78
2023-01-11T01:41:47.188Z,97800.41
2023-01-11T01:44:52.133Z,97798.81
2023-01-11T01:47:32.899Z,97791.81
2023-01-11T01:50:06.562Z,97776.94
2023-01-11T01:52:34.469Z,97778.19
2023-01-11T01:55:10.301Z,97776.38
2023-01-11T01:57:41.499Z,97769.25
2023-01-11T02:00:10.683Z,97772.19
2023-01-11T02:02:40.977Z,97769.00
2023-01-11T02:05:10.068Z,97758.69
2023-01-11T02:07:40.885Z,97755.75
2023-01-11T02:10:12.966Z,97754.13
2023-01-11T02:12:46.941Z,97746.25
2023-01-11T02:15:16.879Z,97739.72
2023-01-11T02:17:44.395Z,97742.00
2023-01-11T02:20:20.947Z,97734.81
2023-01-11T02:23:16.534Z,97739.00
2023-01-11T02:26:02.759Z,97735.72
2023-01-11T02:28:52.571Z,97733.38
2023-01-11T02:31:44.245Z,97730.22
2023-01-11T02:34:32.459Z,97727.06
2023-01-11T02:37:25.214Z,97721.44
2023-01-11T02:40:14.098Z,97717.09
2023-01-11T02:43:11.405Z,97710.31
2023-01-11T02:45:49.539Z,97696.59
2023-01-11T02:48:31.999Z,97699.59
2023-01-11T02:51:13.064Z,97696.59
2023-01-11T02:54:10.025Z,97693.88
2023-01-11T02:56:46.596Z,97694.69
2023-01-11T02:59:18.508Z,97687.25
2023-01-11T03:01:51.955Z,97686.91
2023-01-11T03:04:24.188Z,97690.00
2023-01-11T03:07:00.796Z,97685.72
2023-01-11T03:09:37.362Z,97690.72
2023-01-11T03:12:55.136Z,97694.34
2023-01-11T03:15:44.543Z,97695.63
2023-01-11T03:18:36.688Z,97679.13
2023-01-11T03:21:23.919Z,97681.56
2023-01-11T03:24:06.351Z,97673.84
2023-01-11T03:26:36.885Z,97662.13
2023-01-11T03:29:25.871Z,97666.13
2023-01-11T03:32:01.191Z,97659.47
2023-01-11T03:35:01.938Z,97660.13
2023-01-11T03:37:54.338Z,97660.78
2023-01-11T03:40:31.295Z,97652.97
2023-01-11T03:43:12.421Z,97644.16
2023-01-11T03:45:45.919Z,97643.31
2023-01-11T03:48:26.468Z,97635.16
2023-01-11T03:50:55.676Z,97645.34
2023-01-11T03:53:25.907Z,97641.31
2023-01-11T03:55:58.016Z,97635.03
2023-01-11T03:58:27.778Z,97626.59
2023-01-11T04:01:00.042Z,97622.59
2023-01-11T04:03:28.362Z,97618.69
2023-01-11T04:06:00.828Z,97617.88
2023-01-11T04:08:28.755Z,97615.22
2023-01-11T04:10:56.180Z,97607.94
2023-01-11T04:13:23.801Z,97600.03
2023-01-11T04:15:53.631Z,97606.59
2023-01-11T04:18:21.229Z,97615.66
2023-01-11T04:20:48.699Z,97609.59
2023-01-11T04:23:16.327Z,97602.13
2023-01-11T04:25:43.837Z,97599.50
2023-01-11T04:28:11.299Z,97600.75
2023-01-11T04:30:38.784Z,97608.25
2023-01-11T04:33:06.308Z,97600.81
2023-01-11T04:35:33.757Z,97593.91
2023-01-11T04:38:01.228Z,97595.09
2023-01-11T04:40:28.718Z,97594.16
2023-01-11T04:42:56.184Z,97589.88
2023-01-11T04:45:23.746Z,97587.31
2023-01-11T04:48:00.448Z,97573.16
2023-01-11T04:50:28.431Z,97583.09
2023-01-11T04:52:55.948Z,97575.84
2023-01-11T04:55:23.486Z,97585.63
2023-01-11T04:57:50.920Z,97582.19
2023-01-11T05:00:18.841Z,97584.47
2023-01-11T05:02:46.285Z,97573.75
2023-01-11T05:05:14.298Z,97576.19
2023-01-11T05:07:41.770Z,97573.94
2023-01-11T05:10:09.773Z,97578.44
2023-01-11T05:12:37.260Z,97574.00
2023-01-11T05:15:05.305Z,97571.34
2023-01-11T05:17:32.804Z,97569.34
2023-01-11T05:20:00.564Z,97568.97
2023-01-11T05:22:28.018Z,97560.09
2023-01-11T05:24:55.472Z,97565.19
2023-01-11T05:27:22.889Z,97559.47
2023-01-11T05:29:50.432Z,97554.25
2023-01-11T05:32:17.876Z,97547.28
2023-01-11T05:34:45.374Z,97546.91
2023-01-11T05:37:12.797Z,97556.59
2023-01-11T05:39:40.328Z,97545.50
2023-01-11T05:46:13.855Z,97544.06
2023-01-11T05:48:41.375Z,97553.00
2023-01-11T05:51:09.375Z,97554.44
2023-01-11T05:53:36.861Z,97546.34
2023-01-11T05:56:04.609Z,97539.66
2023-01-11T05:58:32.239Z,97556.28
2023-01-11T06:00:59.873Z,97549.41
2023-01-11T06:03:28.565Z,97544.13
2023-01-11T06:05:56.092Z,97548.78
2023-01-11T06:08:23.768Z,97552.44
2023-01-11T06:10:55.345Z,97548.78
2023-01-11T06:13:27.813Z,97551.47
2023-01-11T06:16:04.004Z,97550.47
2023-01-11T06:18:36.543Z,97546.53
2023-01-11T06:21:05.143Z,97540.66
2023-01-11T06:23:34.976Z,97549.78
2023-01-11T06:26:04.730Z,97533.97
2023-01-11T06:28:32.376Z,97537.38
2023-01-11T06:31:00.549Z,97533.53
2023-01-11T06:33:29.642Z,97535.94
2023-01-11T06:35:57.653Z,97537.34
2023-01-11T06:38:26.424Z,97530.22
2023-01-11T06:40:56.303Z,97527.16
2023-01-11T06:43:25.298Z,97535.22
2023-01-11T06:45:53.564Z,97510.22
2023-01-11T06:48:22.733Z,97510.00
2023-01-11T06:50:52.425Z,97516.28
2023-01-11T06:53:20.239Z,97510.00
2023-01-11T06:55:54.802Z,97507.56
2023-01-11T06:58:23.907Z,97499.47
2023-01-11T07:00:52.628Z,97494.19
2023-01-11T07:03:24.508Z,97488.97
2023-01-11T07:05:53.806Z,97492.84
2023-01-11T07:08:21.398Z,97502.81
2023-01-11T07:10:49.011Z,97491.69
2023-01-11T07:13:17.538Z,97498.44
2023-01-11T07:15:48.582Z,97504.00
2023-01-11T07:18:17.707Z,97509.91
2023-01-11T07:20:45.326Z,97510.41
2023-01-11T07:23:13.190Z,97509.00
2023-01-11T07:25:41.366Z,97514.13
2023-01-11T07:28:09.834Z,97510.72
2023-01-11T07:30:56.817Z,97500.97
2023-01-11T07:33:26.913Z,97502.63
2023-01-11T07:35:54.848Z,97499.78
2023-01-11T07:38:22.946Z,97503.06
2023-01-11T07:40:50.450Z,97502.28
2023-01-11T07:43:23.550Z,97516.50
2023-01-11T07:45:53.029Z,97500.25
2023-01-11T07:48:27.213Z,97502.91
2023-01-11T07:50:55.324Z,97500.25
2023-01-11T07:53:25.811Z,97493.78
2023-01-11T07:55:55.953Z,97488.09
2023-01-11T07:58:24.141Z,97481.38
2023-01-11T08:00:51.698Z,97499.47
2023-01-11T08:03:19.477Z,97506.19
2023-01-11T08:05:52.054Z,97510.88
2023-01-11T08:08:19.803Z,97524.28
2023-01-11T08:10:47.472Z,97517.19
2023-01-11T08:13:33.876Z,97508.84
2023-01-11T08:16:01.388Z,97512.75
2023-01-11T08:18:28.889Z,97499.94
2023-01-11T08:20:56.411Z,97504.03
2023-01-11T08:23:23.874Z,97505.25
2023-01-11T08:25:56.632Z,97510.53
2023-01-11T08:28:24.280Z,97500.38
2023-01-11T08:30:51.799Z,97493.03
2023-01-11T08:33:19.358Z,97488.16
2023-01-11T08:35:46.831Z,97510.56
2023-01-11T08:38:14.444Z,97502.19
2023-01-11T08:40:44.929Z,97495.88
2023-01-11T08:43:12.382Z,97498.13
2023-01-11T08:45:40.028Z,97505.41
2023-01-11T08:48:07.649Z,97503.22
2023-01-11T08:50:35.081Z,97503.81
2023-01-11T08:53:02.617Z,97509.72
2023-01-11T08:55:30.990Z,97498.34
2023-01-11T08:57:58.588Z,97500.97
2023-01-11T09:00:26.148Z,97504.44
2023-01-11T09:02:53.715Z,97491.03
2023-01-11T09:05:21.291Z,97506.88
2023-01-11T09:07:48.702Z,97502.00
2023-01-11T09:10:16.332Z,97504.44
2023-01-11T09:12:43.861Z,97502.00
2023-01-11T09:15:11.713Z,97507.09
2023-01-11T09:17:39.393Z,97516.22
2023-01-11T09:20:07.354Z,97516.66
2023-01-11T09:22:34.932Z,97521.94
2023-01-11T09:25:02.811Z,97520.09
2023-01-11T09:27:30.361Z,97518.69
2023-01-11T09:29:57.868Z,97508.28
2023-01-11T09:32:25.483Z,97512.19
2023-01-11T09:34:57.398Z,97502.41
2023-01-11T09:37:25.078Z,97515.22
2023-01-11T09:39:52.819Z,97502.63
2023-01-11T09:42:36.960Z,97510.75
2023-01-11T09:45:13.906Z,97498.56
2023-01-11T09:47:41.350Z,97496.31
2023-01-11T09:50:17.400Z,97494.88
2023-01-11T09:52:51.389Z,97493.66
2023-01-11T09:55:25.575Z,97478.00
2023-01-11T09:57:54.344Z,97469.44
2023-01-11T10:00:25.531Z,97485.72
2023-01-11T10:03:21.100Z,97475.78
2023-01-11T10:06:09.206Z,97469.25
2023-01-11T10:18:32.082Z,97464.56
2023-01-11T10:19:18.346Z,97455.66
2023-01-11T10:22:02.226Z,97466.41
2023-01-11T10:24:50.409Z,97459.69
2023-01-11T10:27:28.063Z,97455.63
2023-01-11T10:30:14.741Z,97452.41
2023-01-11T10:32:47.739Z,97447.69
2023-01-11T10:35:43.634Z,97454.41
2023-01-11T10:38:43.741Z,97446.28
2023-01-11T10:41:26.443Z,97436.31
2023-01-11T10:44:19.524Z,97442.00
2023-01-11T10:46:52.747Z,97440.59
2023-01-11T10:49:34.614Z,97441.59
2023-01-11T10:52:20.401Z,97435.28
2023-01-11T10:54:53.435Z,97433.47
2023-01-11T10:57:20.951Z,97425.75
2023-01-11T10:59:57.130Z,97414.78
2023-01-11T11:03:11.643Z,97430.78
2023-01-11T11:05:59.648Z,97425.91
2023-01-11T11:08:55.531Z,97416.16
2023-01-11T11:11:47.316Z,97419.38
2023-01-11T11:14:27.844Z,97415.50
2023-01-11T11:17:45.892Z,97417.72
2023-01-11T11:20:32.127Z,97409.75
2023-01-11T11:23:00.637Z,97412.16
2023-01-11T11:25:38.533Z,97407.50
2023-01-11T11:28:06.115Z,97407.63
2023-01-11T11:30:43.842Z,97396.44
2023-01-11T11:33:21.131Z,97404.56
2023-01-11T11:36:06.410Z,97397.63
2023-01-11T11:38:37.960Z,97398.84
2023-01-11T11:41:12.820Z,97390.72
2023-01-11T11:43:42.753Z,97387.78
2023-01-11T11:46:19.460Z,97377.63
2023-01-11T11:49:18.243Z,97373.03
2023-01-11T11:51:48.133Z,97365.19
2023-01-11T11:54:23.784Z,97369.00
2023-01-11T11:56:51.653Z,97350.47
2023-01-11T11:59:22.096Z,97359.31
2023-01-11T12:01:57.995Z,97346.03
2023-01-11T12:04:40.249Z,97344.66
2023-01-11T12:07:18.680Z,97331.66
2023-01-11T12:10:02.618Z,97336.16
2023-01-11T12:12:33.077Z,97320.66
2023-01-11T12:15:20.513Z,97324.16
2023-01-11T12:17:49.204Z,97325.16
2023-01-11T12:20:22.694Z,97339.38
2023-01-11T12:22:51.528Z,97332.19
2023-01-11T12:25:22.070Z,97320.78
2023-01-11T12:28:11.179Z,97323.44
2023-01-11T12:30:58.934Z,97315.84
2023-01-11T12:33:32.486Z,97314.38
2023-01-11T12:36:15.939Z,97315.44
2023-01-11T12:38:46.099Z,97307.06
2023-01-11T12:41:19.580Z,97310.44
2023-01-11T12:44:09.315Z,97300.88
2023-01-11T12:46:55.148Z,97293.09
2023-01-11T12:49:35.193Z,97288.81
2023-01-11T12:52:27.676Z,97309.09
2023-01-11T12:55:24.783Z,97301.16
2023-01-11T12:57:54.239Z,97299.09
2023-01-11T13:00:29.087Z,97309.75
2023-01-11T13:03:11.795Z,97306.06
2023-01-11T13:06:02.309Z,97301.56
2023-01-11T13:09:12.589Z,97298.31
2023-01-11T13:11:49.260Z,97299.41
2023-01-11T13:14:25.784Z,97300.19
2023-01-11T13:17:24.556Z,97302.00
2023-01-11T13:20:10.305Z,97303.41
2023-01-11T13:22:43.811Z,97301.34
2023-01-11T13:25:25.988Z,97307.25
2023-01-11T13:27:56.314Z,97311.94
2023-01-11T13:30:25.423Z,97308.56
2023-01-11T13:32:58.683Z,97308.81
2023-01-11T13:35:57.960Z,97302.56
2023-01-11T13:38:34.701Z,97306.88
2023-01-11T13:41:21.960Z,97306.50
2023-01-11T13:44:02.470Z,97311.81
2023-01-11T13:46:29.986Z,97313.69
2023-01-11T13:49:04.905Z,97312.44
2023-01-11T13:52:13.660Z,97319.50
2023-01-11T13:54:41.201Z,97321.91
2023-01-11T13:57:17.138Z,97317.66
2023-01-11T13:59:49.329Z,97321.31
2023-01-11T14:02:48.409Z,97319.75
2023-01-11T14:05:19.621Z,97323.25
2023-01-11T14:08:11.458Z,97315.38
2023-01-11T14:10:40.607Z,97325.19
2023-01-11T14:13:55.448Z,97328.53
2023-01-11T14:16:38.939Z,97332.00
2023-01-11T14:19:15.375Z,97339.81
2023-01-11T14:21:55.194Z,97341.03
2023-01-11T14:24:23.889Z,97333.94
2023-01-11T14:27:14.660Z,97336.59
2023-01-11T14:30:02.830Z,97346.00
2023-01-11T14:32:39.144Z,97337.22
2023-01-11T14:35:32.825Z,97337.41
2023-01-11T14:38:41.631Z,97348.41
2023-01-11T14:41:38.665Z,97346.41
2023-01-11T14:44:33.346Z,97339.09
2023-01-11T14:47:25.668Z,97338.91
2023-01-11T14:50:13.902Z,97336.25
2023-01-11T14:52:44.004Z,97340.13
2023-01-11T14:55:21.327Z,97334.19
2023-01-11T14:58:10.340Z,97332.78
2023-01-11T15:00:58.096Z,97336.69
2023-01-11T15:03:43.108Z,97338.47
2023-01-11T15:06:14.992Z,97343.59
2023-01-11T15:08:55.111Z,97344.19
2023-01-11T15:11:31.522Z,97348.25
2023-01-11T15:14:23.671Z,97343.78
2023-01-11T15:17:12.370Z,97346.66
2023-01-11T15:19:43.118Z,97345.41
2023-01-11T15:22:25.349Z,97351.53
2023-01-11T15:24:59.254Z,97351.91
2023-01-11T15:27:38.499Z,97354.31
2023-01-11T15:30:27.507Z,97360.19
2023-01-11T15:33:17.606Z,97367.13
2023-01-11T15:35:57.340Z,97361.81
2023-01-11T15:38:54.321Z,97362.84
2023-01-11T15:42:09.648Z,97350.00
2023-01-11T15:44:46.199Z,97354.50
2023-01-11T15:47:41.070Z,97362.41
2023-01-11T15:50:37.277Z,97368.28
2023-01-11T15:53:26.421Z,97360.56
2023-01-11T15:56:30.790Z,97365.03
2023-01-11T15:59:16.775Z,97376.44
2023-01-11T16:02:05.784Z,97360.72
2023-01-11T16:04:39.607Z,97375.59
2023-01-11T16:07:27.269Z,97374.97
2023-01-11T16:10:23.084Z,97379.47
2023-01-11T16:12:59.261Z,97380.69
2023-01-11T16:15:43.637Z,97372.91
2023-01-11T16:18:19.936Z,97378.19
2023-01-11T16:21:02.380Z,97377.13
2023-01-11T16:23:32.328Z,97377.28
2023-01-11T16:26:01.059Z,97384.00
2023-01-11T16:28:28.971Z,97384.19
2023-01-11T16:31:06.009Z,97388.00
2023-01-11T16:33:34.808Z,97386.78
2023-01-11T16:36:13.204Z,97399.59
2023-01-11T16:38:54.261Z,97396.75
2023-01-11T16:41:23.620Z,97396.31
2023-01-11T16:44:04.703Z,97397.13
2023-01-11T16:47:11.317Z,97398.91
2023-01-11T16:49:41.095Z,97399.91
2023-01-11T16:52:26.899Z,97413.34
2023-01-11T16:55:00.302Z,97415.75
2023-01-11T16:57:37.686Z,97411.84
2023-01-11T17:00:19.010Z,97415.50
2023-01-11T17:02:49.094Z,97412.22
2023-01-11T17:05:22.483Z,97419.00
2023-01-11T17:07:50.653Z,97426.53
2023-01-11T17:10:30.115Z,97427.09
2023-01-11T17:13:39.385Z,97431.81
2023-01-11T17:16:10.636Z,97439.16
2023-01-11T17:18:40.221Z,97432.81
2023-01-11T17:21:35.707Z,97435.47
2023-01-11T17:24:05.401Z,97448.97
2023-01-11T17:26:45.448Z,97452.19
2023-01-11T17:29:21.507Z,97446.88
2023-01-11T17:31:50.012Z,97456.69
2023-01-11T17:34:23.443Z,97456.69
2023-01-11T17:36:51.361Z,97454.63
2023-01-11T17:39:43.609Z,97462.22
2023-01-11T17:42:33.345Z,97464.25
2023-01-11T17:45:15.579Z,97462.84
2023-01-11T17:47:46.349Z,97469.56
2023-01-11T17:50:40.086Z,97472.63
2023-01-11T17:53:13.403Z,97479.56
2023-01-11T17:56:01.139Z,97479.16
2023-01-11T17:58:33.845Z,97487.34
2023-01-11T18:01:04.591Z,97491.84
2023-01-11T18:03:41.408Z,97486.34
2023-01-11T18:06:19.942Z,97490.44
2023-01-11T18:08:51.166Z,97497.53
2023-01-11T18:11:48.843Z,97496.72
2023-01-11T18:14:29.781Z,97501.19
2023-01-11T18:17:24.679Z,97497.72
2023-01-11T18:19:52.399Z,97506.47
2023-01-11T18:22:37.335Z,97500.38
2023-01-11T18:25:25.517Z,97502.22
2023-01-11T18:28:19.212Z,97504.88
2023-01-11T18:30:55.116Z,97503.81
2023-01-11T18:33:28.620Z,97512.19
2023-01-11T18:36:04.367Z,97516.31
2023-01-11T18:38:34.906Z,97525.25
2023-01-11T18:41:27.155Z,97529.94
2023-01-11T18:43:55.422Z,97521.00
2023-01-11T18:46:22.978Z,97525.44
2023-01-11T18:48:50.588Z,97541.59
2023-01-11T18:51:25.009Z,97534.25
2023-01-11T18:53:52.522Z,97527.72
2023-01-11T18:56:20.041Z,97535.91
2023-01-11T18:58:47.528Z,97534.06
2023-01-11T19:01:15.254Z,97534.06
2023-01-11T19:03:44.680Z,97541.41
2023-01-11T19:06:14.270Z,97541.41
2023-01-11T19:08:41.729Z,97547.31
2023-01-11T19:11:09.334Z,97560.31
2023-01-11T19:13:36.809Z,97563.00
2023-01-11T19:16:04.746Z,97563.81
2023-01-11T19:18:35.228Z,97559.75
2023-01-11T19:21:06.775Z,97567.50
2023-01-11T19:23:34.388Z,97577.28
2023-01-11T19:26:02.376Z,97588.91
2023-01-11T19:28:30.035Z,97590.97
2023-01-11T19:30:57.594Z,97587.69
2023-01-11T19:33:25.951Z,97598.28
2023-01-11T19:35:53.476Z,97597.47
2023-01-11T19:38:21.070Z,97594.22
2023-01-11T19:40:50.462Z,97598.91
2023-01-11T19:43:18.339Z,97596.25
2023-01-11T19:45:54.497Z,97593.00
2023-01-11T19:48:22.189Z,97596.84
2023-01-11T19:50:49.769Z,97595.25
2023-01-11T19:53:17.766Z,97607.28
2023-01-11T19:55:45.208Z,97601.97
2023-01-11T19:58:12.839Z,97604.81
2023-01-11T20:00:40.326Z,97610.72
2023-01-11T20:03:07.853Z,97612.19
2023-01-11T20:05:35.376Z,97622.97
2023-01-11T20:08:02.860Z,97631.31
2023-01-11T20:10:30.403Z,97630.50
2023-01-11T20:12:57.930Z,97627.66
2023-01-11T20:15:25.541Z,97630.53
2023-01-11T20:17:52.957Z,97631.75
2023-01-11T20:20:20.426Z,97641.53
2023-01-11T20:22:48.025Z,97643.38
2023-01-11T20:25:18.108Z,97647.84
2023-01-11T20:27:45.711Z,97647.28
2023-01-11T20:30:13.377Z,97648.88
2023-01-11T20:32:42.463Z,97649.09
2023-01-11T20:35:10.902Z,97649.91
2023-01-11T20:37:38.758Z,97656.03
2023-01-11T20:40:07.035Z,97650.75
2023-01-11T20:42:34.594Z,97649.72
2023-01-11T20:45:02.270Z,97655.03
2023-01-11T20:47:29.719Z,97664.19
2023-01-11T20:49:57.333Z,97657.06
2023-01-11T20:52:24.914Z,97648.31
2023-01-11T20:54:52.488Z,97645.44
2023-01-11T20:57:19.992Z,97651.59
2023-01-11T20:59:47.498Z,97657.06
2023-01-11T21:02:14.969Z,97658.28
2023-01-11T21:04:42.625Z,97658.09
2023-01-11T21:07:10.113Z,97656.03
2023-01-11T21:09:37.636Z,97648.50
2023-01-11T21:12:05.594Z,97648.91
2023-01-11T21:14:33.086Z,97651.56
2023-01-11T21:17:00.595Z,97652.97
2023-01-11T21:19:28.138Z,97662.94
2023-01-11T21:21:55.523Z,97663.56
2023-01-11T21:24:23.402Z,97670.91
2023-01-11T21:26:50.949Z,97670.69
2023-01-11T21:29:18.538Z,97668.44
2023-01-11T21:31:46.127Z,97671.28
2023-01-11T21:34:14.027Z,97679.84
2023-01-11T21:36:43.380Z,97687.59
2023-01-11T21:39:13.424Z,97681.66
2023-01-11T21:41:57.588Z,97688.22
2023-01-11T21:44:33.974Z,97684.53
2023-01-11T21:47:03.691Z,97688.00
2023-01-11T21:49:32.632Z,97686.97
2023-01-11T21:52:00.477Z,97694.69
2023-01-11T21:54:28.036Z,97696.09
2023-01-11T21:56:55.754Z,97704.44
2023-01-11T21:59:24.619Z,97701.81
2023-01-11T22:01:52.128Z,97707.09
2023-01-11T22:04:20.581Z,97721.72
2023-01-11T22:06:54.285Z,97723.13
2023-01-11T22:09:24.052Z,97717.84
2023-01-11T22:11:51.777Z,97732.47
2023-01-11T22:14:19.268Z,97731.44
2023-01-11T22:16:46.882Z,97735.28
2023-01-11T22:19:15.303Z,97730.00
2023-01-11T22:21:42.872Z,97740.34
2023-01-11T22:24:12.105Z,97741.78
2023-01-11T22:26:40.268Z,97725.69
2023-01-11T22:29:17.888Z,97720.38
2023-01-11T22:31:49.050Z,97723.25
2023-01-11T22:34:18.323Z,97733.41
2023-01-11T22:36:46.432Z,97741.06
2023-01-11T22:39:15.724Z,97747.94
2023-01-11T22:41:46.085Z,97749.97
2023-01-11T22:44:14.367Z,97747.94
2023-01-11T22:46:42.509Z,97751.78
2023-01-11T22:49:11.022Z,97751.34
2023-01-11T22:51:39.778Z,97752.38
2023-01-11T22:54:07.248Z,97753.78
2023-01-11T22:56:34.818Z,97752.97
2023-01-11T22:59:02.776Z,97752.56
2023-01-11T23:01:33.404Z,97745.47
2023-01-11T23:04:01.877Z,97745.84
2023-01-11T23:06:34.581Z,97743.66
2023-01-11T23:09:02.418Z,97750.59
2023-01-11T23:11:50.850Z,97750.81
2023-01-11T23:14:20.130Z,97742.25
2023-01-11T23:16:49.772Z,97737.94
2023-01-11T23:19:19.691Z,97737.13
2023-01-11T23:21:47.745Z,97734.69
2023-01-11T23:24:16.939Z,97735.25
2023-01-11T23:26:45.426Z,97740.34
2023-01-11T23:29:13.160Z,97746.41
2023-01-11T23:31:40.822Z,97737.06
2023-01-11T23:34:09.059Z,97738.88
2023-01-11T23:36:38.946Z,97752.09
2023-01-11T23:39:08.536Z,97748.84
2023-01-11T23:41:54.443Z,97741.53
2023-01-11T23:44:22.937Z,97739.22
2023-01-11T23:47:09.670Z,97735.53
2023-01-11T23:49:37.240Z,97731.84
2023-01-11T23:52:05.631Z,97735.28
2023-01-11T23:54:34.402Z,97740.56
2023-01-11T23:57:03.128Z,97741.59
2023-01-11T23:59:31.024Z,97730.97
